Time;durP1;ratioP1;P1;durP2;ratioP2;P2;SDS_P1;SDS_P2;PMS_P1;PMS_P2;Temp;Humidity;BMP_temperature;BMP_pressure;BME280_temperature;BME280_humidity;BME280_pressure;Samples;Min_cycle;Max_cycle;Signal;HPM_P1;HPM_P2
2020/12/26 00:01:43;;;;;;;21.57;12.27;;;;;;;;;;5071524;28;20277;-80
2020/12/26 00:04:09;;;;;;;21.37;12.70;;;;;;;;;;5072420;28;20203;-79
2020/12/26 00:06:35;;;;;;;31.37;14.70;;;;;;;;;;5072273;28;20174;-79
2020/12/26 00:09:00;;;;;;;21.37;13.30;;;;;;;;;;5070694;28;20198;-80
2020/12/26 00:11:25;;;;;;;31.33;16.87;;;;;;;;;;5072427;28;20221;-80
2020/12/26 00:13:51;;;;;;;35.13;19.43;;;;;;;;;;5072417;28;20171;-80
2020/12/26 00:16:16;;;;;;;29.77;16.27;;;;;;;;;;5072407;28;20228;-79
2020/12/26 00:18:42;;;;;;;21.17;12.87;;;;;;;;;;5072660;28;20566;-80
2020/12/26 00:21:08;;;;;;;17.40;11.43;;;;;;;;;;5072431;28;20219;-79
2020/12/26 00:23:33;;;;;;;18.30;12.77;;;;;;;;;;5072053;28;20206;-80
2020/12/26 00:25:59;;;;;;;18.20;12.10;;;;;;;;;;5072019;28;20171;-79
2020/12/26 00:28:24;;;;;;;22.83;14.83;;;;;;;;;;5072316;28;20182;-80
2020/12/26 00:30:49;;;;;;;15.70;12.10;;;;;;;;;;5072438;28;20254;-83
2020/12/26 00:33:15;;;;;;;18.03;12.27;;;;;;;;;;5072151;28;20186;-79
2020/12/26 00:35:40;;;;;;;17.60;11.83;;;;;;;;;;5072285;28;20171;-80
2020/12/26 00:38:05;;;;;;;17.13;11.23;;;;;;;;;;5054152;28;20178;-79
2020/12/26 00:40:31;;;;;;;24.30;14.83;;;;;;;;;;5071921;28;20626;-79
2020/12/26 00:42:56;;;;;;;19.47;13.17;;;;;;;;;;5071799;28;20225;-80
2020/12/26 00:45:21;;;;;;;17.97;11.83;;;;;;;;;;5072175;28;20194;-81
2020/12/26 00:47:46;;;;;;;20.97;13.77;;;;;;;;;;5072107;28;20208;-79
2020/12/26 00:50:12;;;;;;;17.37;11.97;;;;;;;;;;5071912;28;20198;-79
2020/12/26 00:52:38;;;;;;;18.77;12.40;;;;;;;;;;5071761;28;20608;-79
2020/12/26 00:55:03;;;;;;;18.93;12.87;;;;;;;;;;5071838;28;20187;-79
2020/12/26 00:57:28;;;;;;;21.57;14.63;;;;;;;;;;5071976;28;20167;-79
2020/12/26 00:59:54;;;;;;;31.30;17.70;;;;;;;;;;5072087;28;20229;-79
2020/12/26 01:02:19;;;;;;;18.40;12.57;;;;;;;;;;5071938;28;20230;-79
2020/12/26 01:04:44;;;;;;;23.27;15.10;;;;;;;;;;5072113;28;20599;-79
2020/12/26 01:07:09;;;;;;;15.30;11.33;;;;;;;;;;5075590;28;20633;-79
2020/12/26 01:09:35;;;;;;;17.80;11.70;;;;;;;;;;5075310;28;20167;-79
2020/12/26 01:12:00;;;;;;;20.63;12.83;;;;;;;;;;5075573;28;20571;-80
2020/12/26 01:14:25;;;;;;;22.73;14.83;;;;;;;;;;5075576;28;20163;-79
2020/12/26 01:16:51;;;;;;;20.37;13.70;;;;;;;;;;5075777;28;20159;-79
2020/12/26 01:19:17;;;;;;;21.47;13.47;;;;;;;;;;5075391;28;20194;-79
2020/12/26 01:21:43;;;;;;;22.63;15.23;;;;;;;;;;5075074;28;20175;-79
2020/12/26 01:24:08;;;;;;;18.60;12.23;;;;;;;;;;5075142;28;20170;-79
2020/12/26 01:26:33;;;;;;;19.97;13.70;;;;;;;;;;5075060;28;20171;-80
2020/12/26 01:28:58;;;;;;;21.43;13.30;;;;;;;;;;5075349;28;20170;-80
2020/12/26 01:31:24;;;;;;;18.30;13.00;;;;;;;;;;5075233;28;20244;-80
2020/12/26 01:33:51;;;;;;;19.00;13.10;;;;;;;;;;5075178;28;20558;-80
2020/12/26 01:36:16;;;;;;;19.57;13.23;;;;;;;;;;5075159;28;20167;-80
2020/12/26 01:38:41;;;;;;;19.03;13.23;;;;;;;;;;5075418;28;20515;-80
2020/12/26 01:41:07;;;;;;;24.87;15.57;;;;;;;;;;5075092;28;20175;-79
2020/12/26 01:43:32;;;;;;;19.63;13.13;;;;;;;;;;5074995;28;20260;-80
2020/12/26 01:45:57;;;;;;;22.97;13.87;;;;;;;;;;5075168;28;20163;-79
2020/12/26 01:48:24;;;;;;;20.83;13.40;;;;;;;;;;5075517;28;20194;-79
2020/12/26 01:50:51;;;;;;;18.73;13.10;;;;;;;;;;5074885;28;20203;-80
2020/12/26 01:53:17;;;;;;;29.57;15.67;;;;;;;;;;5074890;28;20233;-80
2020/12/26 01:55:42;;;;;;;24.73;15.73;;;;;;;;;;5074541;28;20203;-80
2020/12/26 01:58:12;;;;;;;18.77;13.33;;;;;;;;;;5074819;28;20206;-79
2020/12/26 02:00:37;;;;;;;23.77;14.73;;;;;;;;;;5074822;28;20170;-79
2020/12/26 02:03:02;;;;;;;21.37;14.30;;;;;;;;;;5074143;28;20226;-80
2020/12/26 02:05:28;;;;;;;22.27;13.90;;;;;;;;;;5056626;28;20198;-82
2020/12/26 02:07:53;;;;;;;17.30;12.47;;;;;;;;;;5074825;28;20652;-80
2020/12/26 02:10:19;;;;;;;19.63;13.13;;;;;;;;;;5074894;28;20195;-79
2020/12/26 02:12:44;;;;;;;17.20;12.30;;;;;;;;;;5074525;28;20211;-79
2020/12/26 02:15:12;;;;;;;21.03;14.77;;;;;;;;;;5074139;28;20213;-80
2020/12/26 02:17:37;;;;;;;17.67;12.67;;;;;;;;;;5073949;28;20175;-79
2020/12/26 02:20:02;;;;;;;19.03;13.07;;;;;;;;;;5074159;28;20174;-80
2020/12/26 02:22:27;;;;;;;20.83;14.03;;;;;;;;;;5074555;28;20675;-79
2020/12/26 02:24:53;;;;;;;22.30;14.03;;;;;;;;;;5073965;28;20198;-79
2020/12/26 02:27:18;;;;;;;16.20;11.40;;;;;;;;;;5073965;28;20167;-79
2020/12/26 02:29:43;;;;;;;17.43;11.63;;;;;;;;;;5074520;28;20167;-79
2020/12/26 02:32:10;;;;;;;15.03;11.43;;;;;;;;;;5074068;28;20171;-80
2020/12/26 02:34:35;;;;;;;14.13;9.90;;;;;;;;;;5074002;28;20183;-80
2020/12/26 02:37:00;;;;;;;16.33;10.40;;;;;;;;;;5073715;28;20174;-83
2020/12/26 02:39:26;;;;;;;12.57;9.37;;;;;;;;;;5074304;28;20171;-80
2020/12/26 02:41:52;;;;;;;11.23;9.10;;;;;;;;;;5073888;28;20719;-80
2020/12/26 02:44:17;;;;;;;12.20;9.23;;;;;;;;;;5073596;28;20210;-80
2020/12/26 02:46:48;;;;;;;11.50;8.47;;;;;;;;;;5073830;28;20171;-80
2020/12/26 02:49:13;;;;;;;11.27;8.73;;;;;;;;;;5073606;28;20581;-80
2020/12/26 02:51:38;;;;;;;13.33;8.80;;;;;;;;;;5073410;28;20202;-79
2020/12/26 02:54:03;;;;;;;10.50;8.17;;;;;;;;;;5073388;28;20174;-80
2020/12/26 02:56:29;;;;;;;13.00;8.97;;;;;;;;;;5073643;28;20575;-79
2020/12/26 02:58:54;;;;;;;13.03;9.27;;;;;;;;;;5073865;28;20210;-79
2020/12/26 03:01:19;;;;;;;17.20;11.10;;;;;;;;;;5073153;28;20227;-79
2020/12/26 03:03:44;;;;;;;14.13;10.20;;;;;;;;;;5073183;28;20591;-80
2020/12/26 03:06:12;;;;;;;11.53;8.47;;;;;;;;;;5073097;28;20194;-79
2020/12/26 03:08:37;;;;;;;10.43;8.27;;;;;;;;;;5073263;28;20171;-80
2020/12/26 03:11:02;;;;;;;11.47;8.50;;;;;;;;;;5073852;28;20308;-79
2020/12/26 03:13:29;;;;;;;11.53;9.00;;;;;;;;;;5073531;28;20203;-79
2020/12/26 03:15:55;;;;;;;12.10;8.60;;;;;;;;;;5072869;28;20175;-79
2020/12/26 03:18:20;;;;;;;9.77;7.70;;;;;;;;;;5072983;28;20182;-80
2020/12/26 03:20:45;;;;;;;10.27;7.63;;;;;;;;;;5072907;28;20170;-79
2020/12/26 03:23:11;;;;;;;12.33;9.00;;;;;;;;;;5072785;28;20276;-80
2020/12/26 03:25:36;;;;;;;10.37;8.10;;;;;;;;;;5072768;28;20640;-79
2020/12/26 03:28:01;;;;;;;10.97;7.90;;;;;;;;;;5072519;28;20171;-79
2020/12/26 03:30:27;;;;;;;10.13;7.50;;;;;;;;;;5072707;28;20167;-79
2020/12/26 03:32:52;;;;;;;11.73;7.80;;;;;;;;;;5073297;28;20179;-79
2020/12/26 03:35:17;;;;;;;13.53;8.67;;;;;;;;;;5073064;28;20180;-79
2020/12/26 03:37:42;;;;;;;12.00;8.70;;;;;;;;;;5072643;28;20177;-79
2020/12/26 03:40:10;;;;;;;13.30;8.57;;;;;;;;;;5073240;28;20178;-80
2020/12/26 03:42:36;;;;;;;10.70;8.33;;;;;;;;;;5072793;28;20277;-82
2020/12/26 03:45:01;;;;;;;12.63;8.70;;;;;;;;;;5073343;28;20263;-79
2020/12/26 03:47:26;;;;;;;11.47;8.37;;;;;;;;;;5072823;28;20254;-79
2020/12/26 03:49:52;;;;;;;11.37;7.80;;;;;;;;;;5072540;28;20177;-79
2020/12/26 03:52:17;;;;;;;12.80;7.40;;;;;;;;;;5072980;28;20179;-79
2020/12/26 03:54:42;;;;;;;11.47;7.40;;;;;;;;;;5072432;28;20175;-79
2020/12/26 03:57:07;;;;;;;10.30;7.17;;;;;;;;;;5072757;28;20175;-80
2020/12/26 03:59:33;;;;;;;10.83;6.83;;;;;;;;;;5072967;28;20262;-79
2020/12/26 04:01:58;;;;;;;11.80;7.40;;;;;;;;;;5072599;28;20226;-79
2020/12/26 04:04:24;;;;;;;11.93;6.63;;;;;;;;;;5072233;28;20642;-79
2020/12/26 04:06:49;;;;;;;11.97;7.30;;;;;;;;;;5072657;28;20163;-79
2020/12/26 04:09:14;;;;;;;12.20;7.00;;;;;;;;;;5072319;28;20525;-79
2020/12/26 04:11:40;;;;;;;11.90;7.53;;;;;;;;;;5072551;28;20167;-79
2020/12/26 04:14:05;;;;;;;11.63;7.07;;;;;;;;;;5072598;28;20199;-79
2020/12/26 04:16:31;;;;;;;9.40;7.23;;;;;;;;;;5072551;28;20634;-78
2020/12/26 04:18:57;;;;;;;10.37;7.13;;;;;;;;;;5072187;28;20194;-79
2020/12/26 04:21:22;;;;;;;10.50;7.27;;;;;;;;;;5072159;28;20503;-79
2020/12/26 04:23:48;;;;;;;10.10;6.97;;;;;;;;;;5072111;28;20221;-79
2020/12/26 04:26:14;;;;;;;12.67;7.40;;;;;;;;;;5072198;28;20171;-79
2020/12/26 04:28:39;;;;;;;11.73;7.30;;;;;;;;;;5072277;28;20167;-82
2020/12/26 04:31:04;;;;;;;9.73;7.10;;;;;;;;;;5072256;28;20175;-79
2020/12/26 04:33:29;;;;;;;9.80;7.50;;;;;;;;;;5072291;28;20179;-79
2020/12/26 04:35:55;;;;;;;10.50;7.27;;;;;;;;;;5072354;28;20249;-79
2020/12/26 04:38:20;;;;;;;7.83;6.57;;;;;;;;;;5072037;28;20652;-79
2020/12/26 04:40:48;;;;;;;10.57;7.43;;;;;;;;;;5076212;28;20172;-79
2020/12/26 04:43:13;;;;;;;13.17;8.00;;;;;;;;;;5076130;28;20195;-79
2020/12/26 04:45:40;;;;;;;11.43;7.70;;;;;;;;;;5076355;28;20523;-79
2020/12/26 04:48:05;;;;;;;8.27;7.20;;;;;;;;;;5076415;28;20175;-79
2020/12/26 04:50:32;;;;;;;11.40;7.77;;;;;;;;;;5075992;28;21112;-79
2020/12/26 04:52:58;;;;;;;10.10;7.40;;;;;;;;;;5075702;28;20181;-79
2020/12/26 04:55:26;;;;;;;9.57;7.77;;;;;;;;;;5076233;28;20674;-79
2020/12/26 04:57:52;;;;;;;9.83;7.60;;;;;;;;;;5075944;28;20171;-79
2020/12/26 05:00:17;;;;;;;10.57;8.40;;;;;;;;;;5075913;28;20194;-79
2020/12/26 05:02:44;;;;;;;10.67;8.70;;;;;;;;;;5075490;28;20257;-79
2020/12/26 05:05:09;;;;;;;10.97;8.70;;;;;;;;;;5076012;28;20191;-79
2020/12/26 05:07:35;;;;;;;10.17;8.00;;;;;;;;;;5075459;28;20244;-79
2020/12/26 05:10:00;;;;;;;8.40;7.07;;;;;;;;;;5075678;28;20638;-79
2020/12/26 05:12:26;;;;;;;11.00;8.40;;;;;;;;;;5075635;28;20735;-79
2020/12/26 05:14:52;;;;;;;8.53;7.60;;;;;;;;;;5075344;28;20217;-80
2020/12/26 05:17:17;;;;;;;8.70;7.40;;;;;;;;;;5075581;28;20173;-79
2020/12/26 05:19:43;;;;;;;10.67;7.93;;;;;;;;;;5075571;28;20175;-79
2020/12/26 05:22:09;;;;;;;11.23;7.43;;;;;;;;;;5075535;28;20245;-79
2020/12/26 05:24:34;;;;;;;10.60;7.57;;;;;;;;;;5075210;28;20183;-79
2020/12/26 05:26:59;;;;;;;9.00;7.83;;;;;;;;;;5075402;28;20171;-79
2020/12/26 05:29:25;;;;;;;10.10;7.30;;;;;;;;;;5075124;28;20195;-79
2020/12/26 05:31:57;;;;;;;8.17;6.70;;;;;;;;;;5075086;28;20629;-79
2020/12/26 05:34:33;;;;;;;9.20;7.73;;;;;;;;;;5075009;28;20224;-79
2020/12/26 05:36:59;;;;;;;8.97;7.90;;;;;;;;;;5074864;28;20198;-79
2020/12/26 05:39:28;;;;;;;9.17;7.50;;;;;;;;;;5074847;28;20179;-79
2020/12/26 05:41:53;;;;;;;8.23;6.80;;;;;;;;;;5074833;28;20207;-79
2020/12/26 05:44:23;;;;;;;9.50;7.47;;;;;;;;;;5075068;28;20498;-79
2020/12/26 05:46:52;;;;;;;9.03;7.37;;;;;;;;;;5075018;28;20261;-80
2020/12/26 05:49:36;;;;;;;8.73;6.93;;;;;;;;;;5075040;28;20553;-79
2020/12/26 05:52:12;;;;;;;10.10;8.13;;;;;;;;;;5074368;28;20171;-79
2020/12/26 05:54:38;;;;;;;12.40;8.93;;;;;;;;;;5074613;28;20170;-79
2020/12/26 05:57:10;;;;;;;8.93;7.87;;;;;;;;;;5074921;28;20206;-79
2020/12/26 05:59:36;;;;;;;9.17;7.90;;;;;;;;;;5074577;28;20206;-79
2020/12/26 06:02:20;;;;;;;9.97;7.67;;;;;;;;;;5074335;28;20743;-79
2020/12/26 06:04:50;;;;;;;10.33;7.73;;;;;;;;;;5074658;28;20221;-79
2020/12/26 06:07:16;;;;;;;8.57;6.90;;;;;;;;;;5074590;28;20175;-79
2020/12/26 06:09:43;;;;;;;10.37;7.47;;;;;;;;;;5074680;28;20216;-79
2020/12/26 06:12:14;;;;;;;11.07;7.53;;;;;;;;;;5074549;28;20182;-79
2020/12/26 06:14:40;;;;;;;11.87;8.50;;;;;;;;;;5074358;28;20152;-79
2020/12/26 06:17:05;;;;;;;8.57;6.83;;;;;;;;;;5074703;28;20278;-79
2020/12/26 06:19:31;;;;;;;8.87;6.67;;;;;;;;;;5074766;28;20236;-79
2020/12/26 06:21:57;;;;;;;10.30;7.53;;;;;;;;;;5074167;28;20206;-79
2020/12/26 06:24:23;;;;;;;9.13;6.97;;;;;;;;;;5074342;28;20172;-80
2020/12/26 06:26:52;;;;;;;11.03;7.87;;;;;;;;;;5074462;28;20690;-79
2020/12/26 06:29:21;;;;;;;8.13;6.30;;;;;;;;;;5074192;28;20182;-79
2020/12/26 06:31:47;;;;;;;11.67;8.17;;;;;;;;;;5074381;28;20229;-79
2020/12/26 06:34:13;;;;;;;8.53;6.87;;;;;;;;;;5073917;28;20621;-79
2020/12/26 06:36:39;;;;;;;9.43;6.83;;;;;;;;;;5073789;28;20168;-79
2020/12/26 06:39:23;;;;;;;7.03;6.33;;;;;;;;;;5073727;28;20179;-80
2020/12/26 06:42:08;;;;;;;9.13;7.03;;;;;;;;;;5073925;28;20528;-79
2020/12/26 06:44:34;;;;;;;6.80;5.60;;;;;;;;;;5056065;28;20617;-80
2020/12/26 06:46:59;;;;;;;8.67;6.73;;;;;;;;;;5073617;28;20577;-79
2020/12/26 06:49:25;;;;;;;11.57;7.50;;;;;;;;;;5074149;28;20173;-80
2020/12/26 06:51:51;;;;;;;10.27;7.47;;;;;;;;;;5073884;28;20172;-82
2020/12/26 06:54:35;;;;;;;8.17;6.63;;;;;;;;;;5073971;28;20167;-79
2020/12/26 06:57:00;;;;;;;8.13;7.03;;;;;;;;;;5073523;28;20155;-79
2020/12/26 06:59:32;;;;;;;7.57;6.43;;;;;;;;;;5073345;28;20507;-80
2020/12/26 07:02:05;;;;;;;8.03;6.53;;;;;;;;;;5073234;28;20705;-80
2020/12/26 07:04:35;;;;;;;12.87;7.07;;;;;;;;;;5072870;28;20252;-79
2020/12/26 07:07:01;;;;;;;8.50;6.73;;;;;;;;;;5073711;28;20194;-79
2020/12/26 07:09:35;;;;;;;12.60;9.47;;;;;;;;;;5073179;28;20695;-79
2020/12/26 07:12:00;;;;;;;13.93;9.97;;;;;;;;;;5073409;28;20171;-80
2020/12/26 07:14:44;;;;;;;12.07;8.87;;;;;;;;;;5073701;28;20257;-80
2020/12/26 07:17:13;;;;;;;9.60;7.57;;;;;;;;;;5073050;28;20164;-80
2020/12/26 07:19:39;;;;;;;8.73;7.40;;;;;;;;;;5055366;28;20530;-79
2020/12/26 07:22:20;;;;;;;9.23;7.23;;;;;;;;;;5073154;28;20215;-79
2020/12/26 07:24:53;;;;;;;10.77;7.50;;;;;;;;;;5072844;28;20629;-79
2020/12/26 07:27:25;;;;;;;10.27;7.03;;;;;;;;;;5072780;28;20167;-79
2020/12/26 07:29:58;;;;;;;12.40;8.90;;;;;;;;;;5073029;28;20572;-79
2020/12/26 07:32:35;;;;;;;16.23;11.17;;;;;;;;;;5073094;28;20705;-79
2020/12/26 07:35:00;;;;;;;15.93;10.97;;;;;;;;;;5072950;28;20174;-80
2020/12/26 07:37:25;;;;;;;12.77;8.77;;;;;;;;;;5072712;28;20209;-80
2020/12/26 07:39:51;;;;;;;12.20;9.50;;;;;;;;;;5072897;28;20537;-79
2020/12/26 07:42:16;;;;;;;13.57;10.63;;;;;;;;;;5072781;28;20230;-80
2020/12/26 07:44:42;;;;;;;16.30;13.27;;;;;;;;;;5072557;28;20168;-80
2020/12/26 07:47:08;;;;;;;18.47;12.63;;;;;;;;;;5072872;28;20183;-79
2020/12/26 07:49:34;;;;;;;16.43;11.33;;;;;;;;;;5072439;28;20163;-80
2020/12/26 07:52:08;;;;;;;28.57;17.10;;;;;;;;;;5072529;28;20171;-80
2020/12/26 07:54:34;;;;;;;85.67;40.80;;;;;;;;;;5072777;28;20155;-80
2020/12/26 07:56:59;;;;;;;44.13;23.43;;;;;;;;;;5072677;28;20512;-80
2020/12/26 07:59:25;;;;;;;20.97;12.80;;;;;;;;;;5072951;28;20175;-79
2020/12/26 08:01:54;;;;;;;64.67;32.67;;;;;;;;;;5072490;28;20250;-79
2020/12/26 08:04:19;;;;;;;74.70;36.73;;;;;;;;;;5072877;28;20179;-79
2020/12/26 08:06:45;;;;;;;48.20;25.70;;;;;;;;;;5072602;28;20210;-79
2020/12/26 08:09:11;;;;;;;101.77;46.03;;;;;;;;;;5072798;28;20177;-79
2020/12/26 08:11:36;;;;;;;37.77;21.97;;;;;;;;;;5072280;28;20202;-79
2020/12/26 08:14:02;;;;;;;28.97;20.03;;;;;;;;;;5072523;28;20169;-79
2020/12/26 08:16:28;;;;;;;28.63;15.20;;;;;;;;;;5072870;28;20175;-80
2020/12/26 08:18:53;;;;;;;31.00;17.87;;;;;;;;;;5072398;28;20173;-80
2020/12/26 08:21:21;;;;;;;111.30;47.57;;;;;;;;;;5072280;28;20171;-79
2020/12/26 08:23:57;;;;;;;98.97;52.20;;;;;;;;;;5072366;28;20190;-80
2020/12/26 08:26:27;;;;;;;113.77;48.80;;;;;;;;;;5071941;28;20629;-79
2020/12/26 08:28:54;;;;;;;59.83;28.70;;;;;;;;;;5072404;28;20175;-79
2020/12/26 08:31:21;;;;;;;69.20;34.87;;;;;;;;;;5071849;28;20171;-79
2020/12/26 08:33:48;;;;;;;132.63;53.03;;;;;;;;;;5060498;28;20180;-79
2020/12/26 08:36:20;;;;;;;60.10;27.50;;;;;;;;;;5054383;28;20176;-79
2020/12/26 08:38:56;;;;;;;21.13;12.60;;;;;;;;;;5051987;28;20187;-79
2020/12/26 08:41:21;;;;;;;11.87;9.13;;;;;;;;;;5051963;28;20237;-79
2020/12/26 08:43:47;;;;;;;27.63;16.57;;;;;;;;;;5053496;28;20646;-79
2020/12/26 08:46:17;;;;;;;56.43;25.50;;;;;;;;;;5051974;28;20172;-79
2020/12/26 08:48:42;;;;;;;21.83;14.03;;;;;;;;;;5052353;28;20172;-79
2020/12/26 08:51:18;;;;;;;56.90;28.53;;;;;;;;;;5066736;28;20189;-80
2020/12/26 08:53:44;;;;;;;82.93;37.13;;;;;;;;;;5071753;28;20672;-80
2020/12/26 08:56:09;;;;;;;58.83;29.37;;;;;;;;;;5072080;28;20171;-79
2020/12/26 08:58:34;;;;;;;88.27;37.10;;;;;;;;;;5050511;28;20275;-80
2020/12/26 09:01:01;;;;;;;28.30;18.10;;;;;;;;;;5062674;28;20179;-80
2020/12/26 09:03:29;;;;;;;92.47;37.93;;;;;;;;;;5059952;28;20287;-80
2020/12/26 09:05:55;;;;;;;152.67;54.00;;;;;;;;;;5040982;28;20225;-80
2020/12/26 09:08:47;;;;;;;92.87;40.33;;;;;;;;;;5059263;28;20159;-80
2020/12/26 09:11:12;;;;;;;87.30;37.70;;;;;;;;;;5036785;28;20187;-79
2020/12/26 09:13:39;;;;;;;78.90;35.07;;;;;;;;;;5059849;28;20175;-79
2020/12/26 09:16:06;;;;;;;81.57;34.57;;;;;;;;;;5053086;28;20180;-80
2020/12/26 09:18:35;;;;;;;64.27;31.73;;;;;;;;;;5051772;28;20619;-80
2020/12/26 09:21:01;;;;;;;53.20;27.13;;;;;;;;;;5050218;28;20178;-80
2020/12/26 09:23:37;;;;;;;46.50;25.83;;;;;;;;;;5049419;28;20200;-80
2020/12/26 09:26:12;;;;;;;89.27;37.10;;;;;;;;;;5050247;28;20547;-80
2020/12/26 09:28:57;;;;;;;38.27;20.87;;;;;;;;;;5052822;28;20527;-81
2020/12/26 09:31:25;;;;;;;78.23;34.60;;;;;;;;;;5052964;28;20246;-80
2020/12/26 09:33:51;;;;;;;25.67;14.80;;;;;;;;;;5052229;28;20230;-81
2020/12/26 09:36:18;;;;;;;60.20;29.83;;;;;;;;;;5052301;28;20168;-80
2020/12/26 09:38:44;;;;;;;42.67;22.87;;;;;;;;;;5052833;28;20210;-80
2020/12/26 09:41:13;;;;;;;36.87;19.60;;;;;;;;;;5054305;28;20208;-80
2020/12/26 09:43:38;;;;;;;37.30;21.00;;;;;;;;;;5061357;28;20218;-81
2020/12/26 09:46:04;;;;;;;53.50;27.60;;;;;;;;;;5061379;28;20176;-83
2020/12/26 09:48:29;;;;;;;29.97;18.43;;;;;;;;;;5072658;28;20259;-80
2020/12/26 09:50:54;;;;;;;32.07;19.00;;;;;;;;;;5072474;28;20182;-81
2020/12/26 09:53:20;;;;;;;37.90;21.57;;;;;;;;;;5070989;28;20186;-79
2020/12/26 09:55:45;;;;;;;23.43;16.30;;;;;;;;;;5076262;28;20174;-79
2020/12/26 09:58:10;;;;;;;30.90;18.10;;;;;;;;;;5071293;28;20693;-79
2020/12/26 10:00:35;;;;;;;33.63;20.17;;;;;;;;;;5075986;28;20196;-80
2020/12/26 10:03:01;;;;;;;62.87;33.00;;;;;;;;;;5076102;28;20231;-80
2020/12/26 10:05:26;;;;;;;32.60;19.83;;;;;;;;;;5075778;28;20257;-80
2020/12/26 10:07:51;;;;;;;34.87;21.23;;;;;;;;;;5066978;28;20179;-79
2020/12/26 10:10:17;;;;;;;25.63;17.27;;;;;;;;;;5065711;28;20211;-80
2020/12/26 10:12:42;;;;;;;33.27;21.23;;;;;;;;;;5065390;28;20163;-79
2020/12/26 10:15:07;;;;;;;40.33;24.20;;;;;;;;;;5064044;28;20592;-79
2020/12/26 10:17:33;;;;;;;31.20;20.27;;;;;;;;;;5065169;28;20171;-79
2020/12/26 10:19:58;;;;;;;19.90;15.27;;;;;;;;;;5065546;28;20202;-79
2020/12/26 10:22:23;;;;;;;24.00;16.00;;;;;;;;;;5060770;28;20539;-79
2020/12/26 10:24:49;;;;;;;20.90;13.70;;;;;;;;;;5057638;28;20210;-79
2020/12/26 10:27:14;;;;;;;27.07;16.90;;;;;;;;;;5064421;28;20224;-80
2020/12/26 10:29:39;;;;;;;34.53;21.13;;;;;;;;;;5045591;28;20266;-79
2020/12/26 10:32:05;;;;;;;50.37;29.50;;;;;;;;;;5060488;28;20183;-79
2020/12/26 10:34:30;;;;;;;22.00;15.23;;;;;;;;;;5065109;28;20175;-80
2020/12/26 10:36:55;;;;;;;21.90;14.87;;;;;;;;;;5063970;28;20613;-80
2020/12/26 10:39:21;;;;;;;18.27;13.13;;;;;;;;;;5063642;28;20167;-80
2020/12/26 10:41:46;;;;;;;17.00;13.27;;;;;;;;;;5061859;28;20171;-80
2020/12/26 10:44:11;;;;;;;18.13;12.83;;;;;;;;;;5061506;28;20198;-80
2020/12/26 10:46:38;;;;;;;28.27;17.40;;;;;;;;;;5052786;28;20207;-80
2020/12/26 10:49:06;;;;;;;21.17;14.57;;;;;;;;;;5053050;28;20172;-79
2020/12/26 10:51:31;;;;;;;27.37;17.97;;;;;;;;;;5052531;28;20247;-80
2020/12/26 10:53:57;;;;;;;15.83;11.97;;;;;;;;;;5052680;28;20266;-80
2020/12/26 10:56:22;;;;;;;18.53;13.10;;;;;;;;;;5053808;28;20164;-79
2020/12/26 10:58:47;;;;;;;18.40;13.13;;;;;;;;;;5065190;28;20179;-79
2020/12/26 11:01:13;;;;;;;24.00;15.60;;;;;;;;;;5074260;28;20682;-80
2020/12/26 11:03:38;;;;;;;28.43;18.70;;;;;;;;;;5074693;28;20230;-80
2020/12/26 11:06:03;;;;;;;31.33;20.40;;;;;;;;;;5074633;28;20281;-79
2020/12/26 11:08:29;;;;;;;26.13;17.33;;;;;;;;;;5074755;28;20163;-79
2020/12/26 11:10:54;;;;;;;29.80;18.30;;;;;;;;;;5074889;28;20305;-79
2020/12/26 11:13:19;;;;;;;34.67;22.53;;;;;;;;;;5072840;28;20262;-80
2020/12/26 11:15:45;;;;;;;30.33;18.97;;;;;;;;;;5072455;28;20167;-80
2020/12/26 11:18:10;;;;;;;30.50;18.63;;;;;;;;;;5072348;28;20171;-80
2020/12/26 11:20:35;;;;;;;29.97;18.73;;;;;;;;;;5072144;28;20171;-80
2020/12/26 11:23:00;;;;;;;20.27;14.73;;;;;;;;;;5072345;28;20195;-80
2020/12/26 11:25:26;;;;;;;25.77;17.93;;;;;;;;;;5072108;28;20252;-81
2020/12/26 11:27:51;;;;;;;21.60;15.07;;;;;;;;;;5072651;28;20254;-80
2020/12/26 11:30:17;;;;;;;22.63;16.63;;;;;;;;;;5074220;28;20195;-80
2020/12/26 11:32:42;;;;;;;28.43;17.90;;;;;;;;;;5074462;28;20175;-80
2020/12/26 11:35:07;;;;;;;22.50;14.63;;;;;;;;;;5073948;28;20585;-79
2020/12/26 11:37:33;;;;;;;23.57;14.60;;;;;;;;;;5056141;28;20171;-79
2020/12/26 11:39:58;;;;;;;24.03;15.60;;;;;;;;;;5074373;28;20220;-79
2020/12/26 11:42:23;;;;;;;16.97;10.87;;;;;;;;;;5073881;28;20190;-79
2020/12/26 11:44:49;;;;;;;18.97;13.17;;;;;;;;;;5074495;28;20163;-79
2020/12/26 11:47:14;;;;;;;16.70;11.77;;;;;;;;;;5073863;28;20177;-79
2020/12/26 11:49:39;;;;;;;17.03;11.27;;;;;;;;;;5073089;28;20614;-79
2020/12/26 11:52:06;;;;;;;17.60;12.30;;;;;;;;;;5060550;28;20186;-79
2020/12/26 11:54:31;;;;;;;25.13;16.23;;;;;;;;;;5053958;28;20247;-79
2020/12/26 11:56:56;;;;;;;21.70;13.87;;;;;;;;;;5036193;28;20294;-79
2020/12/26 11:59:22;;;;;;;22.03;11.63;;;;;;;;;;5053938;28;20168;-79
2020/12/26 12:01:48;;;;;;;28.70;16.03;;;;;;;;;;5053645;28;20279;-79
2020/12/26 12:04:13;;;;;;;27.87;14.77;;;;;;;;;;5054036;28;20203;-79
2020/12/26 12:06:38;;;;;;;31.83;15.77;;;;;;;;;;5053668;28;20191;-79
2020/12/26 12:09:04;;;;;;;33.87;17.97;;;;;;;;;;5054134;28;20163;-80
2020/12/26 12:11:29;;;;;;;29.33;16.47;;;;;;;;;;5053708;28;20172;-79
2020/12/26 12:13:55;;;;;;;28.13;16.80;;;;;;;;;;5054848;28;20263;-79
2020/12/26 12:16:20;;;;;;;23.17;14.80;;;;;;;;;;5053382;28;20175;-80
2020/12/26 12:18:45;;;;;;;19.30;11.93;;;;;;;;;;5054040;28;20168;-80
2020/12/26 12:21:11;;;;;;;15.97;10.97;;;;;;;;;;5053956;28;20310;-80
2020/12/26 12:23:36;;;;;;;15.67;10.77;;;;;;;;;;5053378;28;20214;-80
2020/12/26 12:26:01;;;;;;;15.80;10.37;;;;;;;;;;5053344;28;20168;-79
2020/12/26 12:28:27;;;;;;;15.77;11.30;;;;;;;;;;5053360;28;20654;-79
2020/12/26 12:30:52;;;;;;;19.23;12.37;;;;;;;;;;5053374;28;20623;-80
2020/12/26 12:33:17;;;;;;;14.50;9.70;;;;;;;;;;5053786;28;20172;-80
2020/12/26 12:35:42;;;;;;;18.37;11.60;;;;;;;;;;5053443;28;20183;-80
2020/12/26 12:38:08;;;;;;;19.20;12.60;;;;;;;;;;5053175;28;20622;-80
2020/12/26 12:40:33;;;;;;;20.40;12.60;;;;;;;;;;5053612;28;20718;-80
2020/12/26 12:42:58;;;;;;;19.10;12.33;;;;;;;;;;5053175;28;20554;-80
2020/12/26 12:45:24;;;;;;;16.73;10.17;;;;;;;;;;5053312;28;20180;-80
2020/12/26 12:47:49;;;;;;;16.37;9.63;;;;;;;;;;5053204;28;20171;-80
2020/12/26 12:50:15;;;;;;;24.50;15.70;;;;;;;;;;5053567;28;20573;-80
2020/12/26 12:52:40;;;;;;;32.87;15.27;;;;;;;;;;5053067;28;20172;-80
2020/12/26 12:55:05;;;;;;;44.67;20.43;;;;;;;;;;5053259;28;20171;-80
2020/12/26 12:57:31;;;;;;;103.20;38.80;;;;;;;;;;5053571;28;20176;-79
2020/12/26 12:59:56;;;;;;;94.67;36.87;;;;;;;;;;5053283;28;20164;-80
2020/12/26 13:02:22;;;;;;;90.87;33.20;;;;;;;;;;5056353;28;20711;-81
2020/12/26 13:04:47;;;;;;;117.77;41.80;;;;;;;;;;5037043;28;20229;-80
2020/12/26 13:07:12;;;;;;;68.47;29.00;;;;;;;;;;5054544;28;20168;-80
2020/12/26 13:09:38;;;;;;;66.37;29.27;;;;;;;;;;5054055;28;20168;-81
2020/12/26 13:12:03;;;;;;;28.87;16.47;;;;;;;;;;5055154;28;20179;-80
2020/12/26 13:14:28;;;;;;;28.10;15.73;;;;;;;;;;5039544;28;20180;-80
2020/12/26 13:16:54;;;;;;;40.77;19.80;;;;;;;;;;5057107;28;20615;-80
2020/12/26 13:19:19;;;;;;;88.47;37.53;;;;;;;;;;5056573;28;20623;-79
2020/12/26 13:21:44;;;;;;;38.50;19.30;;;;;;;;;;5057129;28;20259;-80
2020/12/26 13:24:10;;;;;;;48.37;23.67;;;;;;;;;;5056385;28;20602;-80
2020/12/26 13:26:35;;;;;;;40.13;19.93;;;;;;;;;;5056664;28;20165;-80
2020/12/26 13:29:00;;;;;;;49.00;24.47;;;;;;;;;;5056521;28;20168;-80
2020/12/26 13:31:26;;;;;;;60.23;27.53;;;;;;;;;;5056725;28;20172;-80
2020/12/26 13:33:53;;;;;;;42.73;23.00;;;;;;;;;;5056455;28;20182;-80
2020/12/26 13:36:18;;;;;;;81.30;36.67;;;;;;;;;;5056380;28;20523;-79
2020/12/26 13:38:43;;;;;;;56.50;27.60;;;;;;;;;;5056175;28;20172;-79
2020/12/26 13:41:09;;;;;;;46.63;21.53;;;;;;;;;;5056434;28;20250;-80
2020/12/26 13:43:34;;;;;;;39.77;20.80;;;;;;;;;;5056373;28;20629;-79
2020/12/26 13:46:00;;;;;;;63.10;28.60;;;;;;;;;;5056286;28;20172;-80
2020/12/26 13:48:25;;;;;;;51.43;22.63;;;;;;;;;;5055961;28;20182;-80
2020/12/26 13:50:50;;;;;;;69.43;29.20;;;;;;;;;;5073878;28;20225;-81
2020/12/26 13:53:15;;;;;;;67.30;29.50;;;;;;;;;;5076273;28;20171;-80
2020/12/26 13:55:41;;;;;;;104.57;40.47;;;;;;;;;;5076417;28;20171;-80
2020/12/26 13:58:06;;;;;;;87.50;35.07;;;;;;;;;;5076042;28;20178;-80
2020/12/26 14:00:32;;;;;;;58.67;29.70;;;;;;;;;;5076294;28;20171;-80
2020/12/26 14:02:57;;;;;;;44.37;26.13;;;;;;;;;;5075471;28;20261;-79
2020/12/26 14:05:22;;;;;;;55.87;27.50;;;;;;;;;;5075505;28;20199;-79
2020/12/26 14:07:47;;;;;;;92.13;36.97;;;;;;;;;;5075747;28;20171;-79
2020/12/26 14:10:13;;;;;;;40.63;22.40;;;;;;;;;;5076115;28;20175;-79
2020/12/26 14:12:38;;;;;;;35.80;20.60;;;;;;;;;;5075615;28;20262;-79
2020/12/26 14:15:04;;;;;;;51.07;26.30;;;;;;;;;;5075620;28;20171;-79
2020/12/26 14:17:29;;;;;;;79.87;35.20;;;;;;;;;;5076000;28;20178;-80
2020/12/26 14:19:54;;;;;;;55.17;28.20;;;;;;;;;;5075360;28;20244;-80